sensor_id;sensor_type;location;lat;lon;timestamp;pressure;altitude;pressure_sealevel;temperature;humidity
19748;BME280;10032;51.386;12.516;2023-02-21T00:01:38;100161.50;;;11.05;100.00
19748;BME280;10032;51.386;12.516;2023-02-21T00:04:22;100162.59;;;11.04;100.00
19748;BME280;10032;51.386;12.516;2023-02-21T00:07:06;100159.31;;;11.02;100.00
19748;BME280;10032;51.386;12.516;2023-02-21T00:09:49;100164.16;;;11.00;100.00
19748;BME280;10032;51.386;12.516;2023-02-21T00:12:33;100166.13;;;11.05;100.00
19748;BME280;10032;51.386;12.516;2023-02-21T00:15:17;100172.34;;;11.05;100.00
19748;BME280;10032;51.386;12.516;2023-02-21T00:18:01;100166.44;;;11.08;100.00
19748;BME280;10032;51.386;12.516;2023-02-21T00:20:45;100158.88;;;11.10;100.00
19748;BME280;10032;51.386;12.516;2023-02-21T00:23:33;100152.06;;;11.08;100.00
19748;BME280;10032;51.386;12.516;2023-02-21T00:26:19;100155.59;;;11.08;100.00
19748;BME280;10032;51.386;12.516;2023-02-21T00:29:03;100153.13;;;11.07;100.00
19748;BME280;10032;51.386;12.516;2023-02-21T00:31:47;100150.19;;;11.08;100.00
19748;BME280;10032;51.386;12.516;2023-02-21T00:34:31;100144.75;;;11.08;100.00
19748;BME280;10032;51.386;12.516;2023-02-21T00:37:15;100141.50;;;11.06;100.00
19748;BME280;10032;51.386;12.516;2023-02-21T00:39:58;100163.41;;;11.05;100.00
19748;BME280;10032;51.386;12.516;2023-02-21T00:42:42;100149.88;;;11.05;100.00
19748;BME280;10032;51.386;12.516;2023-02-21T00:45:26;100154.53;;;11.09;100.00
19748;BME280;10032;51.386;12.516;2023-02-21T00:48:10;100157.47;;;11.08;100.00
19748;BME280;10032;51.386;12.516;2023-02-21T00:50:54;100164.81;;;11.07;100.00
19748;BME280;10032;51.386;12.516;2023-02-21T00:53:38;100160.53;;;11.11;100.00
19748;BME280;10032;51.386;12.516;2023-02-21T00:56:22;100151.50;;;11.06;100.00
19748;BME280;10032;51.386;12.516;2023-02-21T00:59:06;100143.13;;;11.07;100.00
19748;BME280;10032;51.386;12.516;2023-02-21T01:01:49;100152.34;;;11.06;100.00
19748;BME280;10032;51.386;12.516;2023-02-21T01:04:33;100150.19;;;11.08;100.00
19748;BME280;10032;51.386;12.516;2023-02-21T01:07:17;100145.31;;;11.10;100.00
19748;BME280;10032;51.386;12.516;2023-02-21T01:10:02;100146.38;;;11.09;100.00
19748;BME280;10032;51.386;12.516;2023-02-21T01:12:45;100142.88;;;11.09;100.00
19748;BME280;10032;51.386;12.516;2023-02-21T01:15:29;100137.19;;;11.10;100.00
19748;BME280;10032;51.386;12.516;2023-02-21T01:18:13;100145.25;;;11.05;100.00
19748;BME280;10032;51.386;12.516;2023-02-21T01:20:57;100144.75;;;11.08;100.00
19748;BME280;10032;51.386;12.516;2023-02-21T01:23:41;100151.81;;;11.09;100.00
19748;BME280;10032;51.386;12.516;2023-02-21T01:26:25;100148.53;;;11.07;100.00
19748;BME280;10032;51.386;12.516;2023-02-21T01:29:09;100140.41;;;11.07;100.00
19748;BME280;10032;51.386;12.516;2023-02-21T01:31:53;100152.88;;;11.08;100.00
19748;BME280;10032;51.386;12.516;2023-02-21T01:34:37;100137.38;;;11.04;100.00
19748;BME280;10032;51.386;12.516;2023-02-21T01:37:21;100147.97;;;11.05;100.00
19748;BME280;10032;51.386;12.516;2023-02-21T01:40:05;100146.91;;;11.06;100.00
19748;BME280;10032;51.386;12.516;2023-02-21T01:42:49;100145.25;;;11.05;100.00
19748;BME280;10032;51.386;12.516;2023-02-21T01:45:41;100142.03;;;11.08;100.00
19748;BME280;10032;51.386;12.516;2023-02-21T01:48:26;100157.75;;;11.06;100.00
19748;BME280;10032;51.386;12.516;2023-02-21T01:51:13;100143.13;;;11.07;100.00
19748;BME280;10032;51.386;12.516;2023-02-21T01:53:59;100147.72;;;11.07;100.00
19748;BME280;10032;51.386;12.516;2023-02-21T01:56:43;100152.28;;;11.01;100.00
19748;BME280;10032;51.386;12.516;2023-02-21T01:59:27;100141.97;;;11.03;100.00
19748;BME280;10032;51.386;12.516;2023-02-21T02:02:20;100149.03;;;11.04;100.00
19748;BME280;10032;51.386;12.516;2023-02-21T02:05:08;100140.34;;;11.02;100.00
19748;BME280;10032;51.386;12.516;2023-02-21T02:07:54;100138.72;;;11.01;100.00
19748;BME280;10032;51.386;12.516;2023-02-21T02:10:38;100141.97;;;11.03;100.00
19748;BME280;10032;51.386;12.516;2023-02-21T02:13:33;100127.59;;;11.03;100.00
19748;BME280;10032;51.386;12.516;2023-02-21T02:16:35;100124.63;;;11.04;100.00
19748;BME280;10032;51.386;12.516;2023-02-21T02:22:12;100130.06;;;11.04;100.00
19748;BME280;10032;51.386;12.516;2023-02-21T02:25:07;100128.66;;;11.02;100.00
19748;BME280;10032;51.386;12.516;2023-02-21T02:36:41;100113.28;;;11.07;100.00
19748;BME280;10032;51.386;12.516;2023-02-21T02:41:54;100112.72;;;11.05;100.00
19748;BME280;10032;51.386;12.516;2023-02-21T02:44:30;100108.97;;;11.06;100.00
19748;BME280;10032;51.386;12.516;2023-02-21T02:46:57;100106.50;;;11.05;100.00
19748;BME280;10032;51.386;12.516;2023-02-21T02:49:27;100116.81;;;11.08;100.00
19748;BME280;10032;51.386;12.516;2023-02-21T02:51:54;100109.75;;;11.07;100.00
19748;BME280;10032;51.386;12.516;2023-02-21T02:54:20;100113.34;;;11.12;100.00
19748;BME280;10032;51.386;12.516;2023-02-21T02:56:46;100110.06;;;11.10;100.00
19748;BME280;10032;51.386;12.516;2023-02-21T03:04:34;100101.69;;;11.12;100.00
19748;BME280;10032;51.386;12.516;2023-02-21T03:09:45;100092.69;;;11.06;100.00
19748;BME280;10032;51.386;12.516;2023-02-21T03:12:43;100092.34;;;11.03;100.00
19748;BME280;10032;51.386;12.516;2023-02-21T03:17:43;100081.84;;;11.06;100.00
19748;BME280;10032;51.386;12.516;2023-02-21T03:20:12;100098.09;;;11.06;100.00
19748;BME280;10032;51.386;12.516;2023-02-21T03:22:42;100088.25;;;11.00;100.00
19748;BME280;10032;51.386;12.516;2023-02-21T03:25:10;100087.75;;;11.03;100.00
19748;BME280;10032;51.386;12.516;2023-02-21T03:27:36;100097.53;;;11.04;100.00
19748;BME280;10032;51.386;12.516;2023-02-21T03:30:05;100089.69;;;11.08;100.00
19748;BME280;10032;51.386;12.516;2023-02-21T03:32:35;100097.28;;;11.06;100.00
19748;BME280;10032;51.386;12.516;2023-02-21T03:35:02;100090.22;;;11.05;100.00
19748;BME280;10032;51.386;12.516;2023-02-21T03:37:35;100092.69;;;11.06;100.00
19748;BME280;10032;51.386;12.516;2023-02-21T03:40:03;100092.69;;;11.06;100.00
19748;BME280;10032;51.386;12.516;2023-02-21T03:42:29;100090.53;;;11.08;100.00
19748;BME280;10032;51.386;12.516;2023-02-21T03:44:54;100091.84;;;11.06;100.00
19748;BME280;10032;51.386;12.516;2023-02-21T03:47:20;100092.69;;;11.06;100.00
19748;BME280;10032;51.386;12.516;2023-02-21T03:49:45;100090.53;;;11.08;100.00
19748;BME280;10032;51.386;12.516;2023-02-21T03:52:11;100086.75;;;11.09;100.00
19748;BME280;10032;51.386;12.516;2023-02-21T03:54:40;100085.59;;;11.05;100.00
19748;BME280;10032;51.386;12.516;2023-02-21T03:57:05;100083.97;;;11.04;100.00
19748;BME280;10032;51.386;12.516;2023-02-21T03:59:31;100083.47;;;11.07;100.00
19748;BME280;10032;51.386;12.516;2023-02-21T04:01:56;100078.09;;;11.12;100.00
19748;BME280;10032;51.386;12.516;2023-02-21T04:04:22;100078.59;;;11.09;100.00
19748;BME280;10032;51.386;12.516;2023-02-21T04:06:47;100076.41;;;11.06;100.00
19748;BME280;10032;51.386;12.516;2023-02-21T04:09:13;100078.53;;;11.04;100.00
19748;BME280;10032;51.386;12.516;2023-02-21T04:11:42;100069.34;;;11.05;100.00
19748;BME280;10032;51.386;12.516;2023-02-21T04:14:07;100072.88;;;11.06;100.00
19748;BME280;10032;51.386;12.516;2023-02-21T04:16:33;100077.75;;;11.04;100.00
19748;BME280;10032;51.386;12.516;2023-02-21T04:18:59;100089.91;;;11.01;100.00
19748;BME280;10032;51.386;12.516;2023-02-21T04:21:24;100079.00;;;10.96;100.00
19748;BME280;10032;51.386;12.516;2023-02-21T04:23:49;100081.78;;;11.01;100.00
19748;BME280;10032;51.386;12.516;2023-02-21T04:26:15;100089.09;;;11.01;100.00
19748;BME280;10032;51.386;12.516;2023-02-21T04:28:40;100078.50;;;10.99;100.00
19748;BME280;10032;51.386;12.516;2023-02-21T04:31:06;100081.78;;;11.01;100.00
19748;BME280;10032;51.386;12.516;2023-02-21T04:33:31;100077.69;;;10.99;100.00
19748;BME280;10032;51.386;12.516;2023-02-21T04:35:56;100080.13;;;11.00;100.00
19748;BME280;10032;51.386;12.516;2023-02-21T04:38:22;100082.84;;;11.00;100.00
19748;BME280;10032;51.386;12.516;2023-02-21T04:40:47;100073.06;;;10.99;100.00
19748;BME280;10032;51.386;12.516;2023-02-21T04:43:13;100075.53;;;11.01;100.00
19748;BME280;10032;51.386;12.516;2023-02-21T04:45:38;100056.50;;;10.96;100.00
19748;BME280;10032;51.386;12.516;2023-02-21T04:48:04;100072.00;;;11.00;100.00
19748;BME280;10032;51.386;12.516;2023-02-21T04:50:29;100075.78;;;10.99;100.00
19748;BME280;10032;51.386;12.516;2023-02-21T04:52:54;100079.31;;;11.00;100.00
19748;BME280;10032;51.386;12.516;2023-02-21T04:55:20;100079.88;;;11.02;100.00
19748;BME280;10032;51.386;12.516;2023-02-21T04:57:45;100076.31;;;10.96;100.00
19748;BME280;10032;51.386;12.516;2023-02-21T05:00:11;100077.94;;;10.97;100.00
19748;BME280;10032;51.386;12.516;2023-02-21T05:02:37;100084.94;;;10.93;100.00
19748;BME280;10032;51.386;12.516;2023-02-21T05:05:06;100082.22;;;10.93;100.00
19748;BME280;10032;51.386;12.516;2023-02-21T05:07:32;100084.19;;;10.98;100.00
19748;BME280;10032;51.386;12.516;2023-02-21T05:09:57;100078.78;;;10.98;100.00
19748;BME280;10032;51.386;12.516;2023-02-21T05:12:22;100073.34;;;10.98;100.00
19748;BME280;10032;51.386;12.516;2023-02-21T05:14:48;100077.38;;;10.95;100.00
19748;BME280;10032;51.386;12.516;2023-02-21T05:17:13;100087.16;;;10.96;100.00
19748;BME280;10032;51.386;12.516;2023-02-21T05:19:39;100084.19;;;10.98;100.00
19748;BME280;10032;51.386;12.516;2023-02-21T05:22:04;100085.00;;;10.98;100.00
19748;BME280;10032;51.386;12.516;2023-02-21T05:24:32;100089.28;;;10.94;100.00
19748;BME280;10032;51.386;12.516;2023-02-21T05:26:58;100085.50;;;10.95;100.00
19748;BME280;10032;51.386;12.516;2023-02-21T05:29:24;100092.56;;;10.96;100.00
19748;BME280;10032;51.386;12.516;2023-02-21T05:31:50;100085.50;;;10.95;100.00
19748;BME280;10032;51.386;12.516;2023-02-21T05:34:16;100093.06;;;10.93;100.00
19748;BME280;10032;51.386;12.516;2023-02-21T05:36:44;100094.13;;;10.92;100.00
19748;BME280;10032;51.386;12.516;2023-02-21T05:39:10;100092.75;;;10.90;100.00
19748;BME280;10032;51.386;12.516;2023-02-21T05:41:36;100095.22;;;10.91;100.00
19748;BME280;10032;51.386;12.516;2023-02-21T05:44:02;100100.06;;;10.89;100.00
19748;BME280;10032;51.386;12.516;2023-02-21T05:46:30;100095.22;;;10.91;100.00
19748;BME280;10032;51.386;12.516;2023-02-21T05:48:57;100091.44;;;10.92;100.00
19748;BME280;10032;51.386;12.516;2023-02-21T05:51:23;100095.72;;;10.88;100.00
19748;BME280;10032;51.386;12.516;2023-02-21T05:53:50;100099.50;;;10.87;100.00
19748;BME280;10032;51.386;12.516;2023-02-21T05:56:17;100107.38;;;10.89;100.00
19748;BME280;10032;51.386;12.516;2023-02-21T05:58:43;100104.91;;;10.87;100.00
19748;BME280;10032;51.386;12.516;2023-02-21T06:01:08;100106.78;;;10.87;100.00
19748;BME280;10032;51.386;12.516;2023-02-21T06:03:34;100114.94;;;10.87;100.00
19748;BME280;10032;51.386;12.516;2023-02-21T06:06:00;100117.69;;;10.92;100.00
19748;BME280;10032;51.386;12.516;2023-02-21T06:08:25;100111.22;;;10.93;100.00
19748;BME280;10032;51.386;12.516;2023-02-21T06:10:51;100115.88;;;10.97;100.00
19748;BME280;10032;51.386;12.516;2023-02-21T06:13:16;100126.41;;;10.94;100.00
19748;BME280;10032;51.386;12.516;2023-02-21T06:15:42;100126.09;;;10.90;100.00
19748;BME280;10032;51.386;12.516;2023-02-21T06:18:07;100137.13;;;10.84;100.00
19748;BME280;10032;51.386;12.516;2023-02-21T06:20:33;100132.50;;;10.84;100.00
19748;BME280;10032;51.386;12.516;2023-02-21T06:22:58;100136.88;;;10.85;100.00
19748;BME280;10032;51.386;12.516;2023-02-21T06:25:24;100147.72;;;10.85;100.00
19748;BME280;10032;51.386;12.516;2023-02-21T06:27:49;100143.63;;;10.83;100.00
19748;BME280;10032;51.386;12.516;2023-02-21T06:30:15;100141.16;;;10.81;100.00
19748;BME280;10032;51.386;12.516;2023-02-21T06:32:41;100149.28;;;10.81;100.00
19748;BME280;10032;51.386;12.516;2023-02-21T06:35:07;100144.44;;;10.83;100.00
19748;BME280;10032;51.386;12.516;2023-02-21T06:37:33;100146.59;;;10.81;100.00
19748;BME280;10032;51.386;12.516;2023-02-21T06:39:58;100150.09;;;10.82;100.00
19748;BME280;10032;51.386;12.516;2023-02-21T06:42:24;100149.84;;;10.83;100.00
19748;BME280;10032;51.386;12.516;2023-02-21T06:44:49;100154.72;;;10.81;100.00
19748;BME280;10032;51.386;12.516;2023-02-21T06:47:15;100156.88;;;10.79;100.00
19748;BME280;10032;51.386;12.516;2023-02-21T06:49:41;100156.88;;;10.79;100.00
19748;BME280;10032;51.386;12.516;2023-02-21T06:52:07;100166.88;;;10.79;100.00
19748;BME280;10032;51.386;12.516;2023-02-21T06:54:33;100167.69;;;10.79;100.00
19748;BME280;10032;51.386;12.516;2023-02-21T06:56:58;100168.19;;;10.76;100.00
19748;BME280;10032;51.386;12.516;2023-02-21T06:59:28;100168.75;;;10.78;100.00
19748;BME280;10032;51.386;12.516;2023-02-21T07:01:54;100175.25;;;10.77;100.00
19748;BME280;10032;51.386;12.516;2023-02-21T07:04:20;100181.50;;;10.78;100.00
19748;BME280;10032;51.386;12.516;2023-02-21T07:06:45;100183.38;;;10.77;100.00
19748;BME280;10032;51.386;12.516;2023-02-21T07:09:11;100177.97;;;10.77;100.00
19748;BME280;10032;51.386;12.516;2023-02-21T07:11:37;100189.44;;;10.84;100.00
19748;BME280;10032;51.386;12.516;2023-02-21T07:14:03;100185.66;;;10.85;100.00
19748;BME280;10032;51.386;12.516;2023-02-21T07:16:28;100186.78;;;10.89;100.00
19748;BME280;10032;51.386;12.516;2023-02-21T07:18:54;100186.38;;;10.97;100.00
19748;BME280;10032;51.386;12.516;2023-02-21T07:21:20;100187.56;;;11.06;100.00
19748;BME280;10032;51.386;12.516;2023-02-21T07:23:46;100184.88;;;11.06;100.00
19748;BME280;10032;51.386;12.516;2023-02-21T07:26:13;100180.31;;;11.12;100.00
19748;BME280;10032;51.386;12.516;2023-02-21T07:28:38;100185.00;;;11.16;100.00
19748;BME280;10032;51.386;12.516;2023-02-21T07:31:04;100180.69;;;11.20;100.00
19748;BME280;10032;51.386;12.516;2023-02-21T07:33:29;100186.09;;;11.20;100.00
19748;BME280;10032;51.386;12.516;2023-02-21T07:35:55;100178.28;;;11.24;100.00
19748;BME280;10032;51.386;12.516;2023-02-21T07:38:25;100181.34;;;11.27;100.00
19748;BME280;10032;51.386;12.516;2023-02-21T07:40:56;100179.94;;;11.25;100.00
19748;BME280;10032;51.386;12.516;2023-02-21T07:43:23;100193.28;;;11.31;100.00
19748;BME280;10032;51.386;12.516;2023-02-21T07:45:49;100186.53;;;11.34;100.00
19748;BME280;10032;51.386;12.516;2023-02-21T07:48:14;100199.84;;;11.35;100.00
19748;BME280;10032;51.386;12.516;2023-02-21T07:50:41;100193.09;;;11.38;100.00
19748;BME280;10032;51.386;12.516;2023-02-21T07:53:07;100203.16;;;11.37;100.00
19748;BME280;10032;51.386;12.516;2023-02-21T07:55:33;100201.78;;;11.40;100.00
19748;BME280;10032;51.386;12.516;2023-02-21T07:57:58;100192.09;;;11.44;100.00
19748;BME280;10032;51.386;12.516;2023-02-21T08:00:24;100202.69;;;11.45;100.00
19748;BME280;10032;51.386;12.516;2023-02-21T08:02:50;100199.78;;;11.52;100.00
19748;BME280;10032;51.386;12.516;2023-02-21T08:05:17;100213.66;;;11.55;100.00
19748;BME280;10032;51.386;12.516;2023-02-21T08:07:43;100208.19;;;11.50;100.00
19748;BME280;10032;51.386;12.516;2023-02-21T08:10:09;100207.09;;;11.51;100.00
19748;BME280;10032;51.386;12.516;2023-02-21T08:12:35;100218.56;;;11.58;100.00
19748;BME280;10032;51.386;12.516;2023-02-21T08:15:00;100215.06;;;11.58;100.00
19748;BME280;10032;51.386;12.516;2023-02-21T08:17:26;100216.38;;;11.55;100.00
19748;BME280;10032;51.386;12.516;2023-02-21T08:19:51;100223.78;;;11.60;100.00
19748;BME280;10032;51.386;12.516;2023-02-21T08:22:17;100218.66;;;11.63;100.00
19748;BME280;10032;51.386;12.516;2023-02-21T08:24:42;100227.94;;;11.67;100.00
19748;BME280;10032;51.386;12.516;2023-02-21T08:27:08;100226.34;;;11.71;100.00
19748;BME280;10032;51.386;12.516;2023-02-21T08:29:33;100210.63;;;11.73;100.00
19748;BME280;10032;51.386;12.516;2023-02-21T08:31:59;100218.28;;;11.76;100.00
19748;BME280;10032;51.386;12.516;2023-02-21T08:34:24;100225.94;;;11.84;100.00
19748;BME280;10032;51.386;12.516;2023-02-21T08:36:49;100215.72;;;11.91;100.00
19748;BME280;10032;51.386;12.516;2023-02-21T08:39:15;100215.19;;;11.94;100.00
19748;BME280;10032;51.386;12.516;2023-02-21T08:41:43;100216.91;;;12.05;100.00
19748;BME280;10032;51.386;12.516;2023-02-21T08:44:10;100222.97;;;12.12;100.00
19748;BME280;10032;51.386;12.516;2023-02-21T08:46:36;100215.97;;;12.21;100.00
19748;BME280;10032;51.386;12.516;2023-02-21T08:49:04;100217.66;;;12.22;100.00
19748;BME280;10032;51.386;12.516;2023-02-21T08:51:31;100219.22;;;12.18;100.00
19748;BME280;10032;51.386;12.516;2023-02-21T08:53:57;100223.31;;;12.21;100.00
19748;BME280;10032;51.386;12.516;2023-02-21T08:56:24;100219.31;;;12.28;100.00
19748;BME280;10032;51.386;12.516;2023-02-21T08:58:49;100221.28;;;12.38;100.00
19748;BME280;10032;51.386;12.516;2023-02-21T09:01:16;100219.44;;;12.43;100.00
19748;BME280;10032;51.386;12.516;2023-02-21T09:03:41;100226.03;;;12.52;100.00
19748;BME280;10032;51.386;12.516;2023-02-21T09:06:07;100223.91;;;12.59;100.00
19748;BME280;10032;51.386;12.516;2023-02-21T09:08:33;100228.06;;;12.72;100.00
19748;BME280;10032;51.386;12.516;2023-02-21T09:10:59;100232.69;;;12.71;100.00
19748;BME280;10032;51.386;12.516;2023-02-21T09:13:28;100222.41;;;12.78;100.00
19748;BME280;10032;51.386;12.516;2023-02-21T09:16:01;100227.28;;;12.76;100.00
19748;BME280;10032;51.386;12.516;2023-02-21T09:18:28;100221.81;;;12.71;100.00
19748;BME280;10032;51.386;12.516;2023-02-21T09:20:55;100218.59;;;12.79;100.00
19748;BME280;10032;51.386;12.516;2023-02-21T09:23:22;100221.06;;;12.81;100.00
19748;BME280;10032;51.386;12.516;2023-02-21T09:25:50;100221.97;;;12.91;100.00
19748;BME280;10032;51.386;12.516;2023-02-21T09:28:16;100212.13;;;12.90;100.00
19748;BME280;10032;51.386;12.516;2023-02-21T09:30:41;100221.38;;;12.89;100.00
19748;BME280;10032;51.386;12.516;2023-02-21T09:33:07;100223.91;;;12.96;100.00
19748;BME280;10032;51.386;12.516;2023-02-21T09:35:34;100217.69;;;13.00;100.00
19748;BME280;10032;51.386;12.516;2023-02-21T09:38:00;100224.00;;;13.11;100.00
19748;BME280;10032;51.386;12.516;2023-02-21T09:43:01;100234.25;;;13.50;100.00
19748;BME280;10032;51.386;12.516;2023-02-21T09:45:30;100238.09;;;13.54;100.00
19748;BME280;10032;51.386;12.516;2023-02-21T09:48:01;100250.59;;;13.55;100.00
19748;BME280;10032;51.386;12.516;2023-02-21T09:50:33;100241.34;;;13.56;100.00
19748;BME280;10032;51.386;12.516;2023-02-21T09:52:59;100240.53;;;13.56;100.00
19748;BME280;10032;51.386;12.516;2023-02-21T09:57:53;100243.06;;;13.82;100.00
19748;BME280;10032;51.386;12.516;2023-02-21T10:00:27;100244.16;;;13.81;100.00
19748;BME280;10032;51.386;12.516;2023-02-21T10:14:29;100249.19;;;13.43;100.00
19748;BME280;10032;51.386;12.516;2023-02-21T10:17:22;100258.19;;;13.43;100.00
19748;BME280;10032;51.386;12.516;2023-02-21T10:19:59;100254.91;;;13.41;100.00
19748;BME280;10032;51.386;12.516;2023-02-21T10:22:38;100262.75;;;13.33;100.00
19748;BME280;10032;51.386;12.516;2023-02-21T10:25:31;100257.59;;;13.36;100.00
19748;BME280;10032;51.386;12.516;2023-02-21T10:27:58;100264.66;;;13.37;100.00
19748;BME280;10032;51.386;12.516;2023-02-21T10:30:37;100262.53;;;13.39;100.00
19748;BME280;10032;51.386;12.516;2023-02-21T10:33:05;100265.25;;;13.44;100.00
19748;BME280;10032;51.386;12.516;2023-02-21T10:35:32;100262.03;;;13.52;100.00
19748;BME280;10032;51.386;12.516;2023-02-21T10:37:59;100271.53;;;13.50;100.00
19748;BME280;10032;51.386;12.516;2023-02-21T10:40:36;100266.94;;;13.55;100.00
19748;BME280;10032;51.386;12.516;2023-02-21T10:46:04;100275.69;;;13.62;100.00
19748;BME280;10032;51.386;12.516;2023-02-21T10:48:37;100269.69;;;13.60;100.00
19748;BME280;10032;51.386;12.516;2023-02-21T10:53:38;100277.03;;;13.60;100.00
19748;BME280;10032;51.386;12.516;2023-02-21T10:56:08;100272.13;;;13.67;100.00
19748;BME280;10032;51.386;12.516;2023-02-21T10:59:06;100280.31;;;13.67;100.00
19748;BME280;10032;51.386;12.516;2023-02-21T11:01:36;100276.22;;;13.59;100.00
19748;BME280;10032;51.386;12.516;2023-02-21T11:04:21;100282.22;;;13.61;100.00
19748;BME280;10032;51.386;12.516;2023-02-21T11:07:00;100279.53;;;13.71;100.00
19748;BME280;10032;51.386;12.516;2023-02-21T11:09:46;100276.84;;;13.81;100.00
19748;BME280;10032;51.386;12.516;2023-02-21T11:12:16;100277.09;;;13.80;100.00
19748;BME280;10032;51.386;12.516;2023-02-21T11:15:04;100272.50;;;13.95;100.00
19748;BME280;10032;51.386;12.516;2023-02-21T11:17:30;100277.16;;;13.95;100.00
19748;BME280;10032;51.386;12.516;2023-02-21T11:22:26;100263.78;;;13.83;100.00
19748;BME280;10032;51.386;12.516;2023-02-21T11:25:04;100269.78;;;13.80;100.00
19748;BME280;10032;51.386;12.516;2023-02-21T11:27:34;100262.66;;;13.79;100.00
19748;BME280;10032;51.386;12.516;2023-02-21T11:30:02;100262.38;;;13.76;100.00
19748;BME280;10032;51.386;12.516;2023-02-21T11:32:35;100262.66;;;13.79;100.00
19748;BME280;10032;51.386;12.516;2023-02-21T11:35:14;100260.22;;;13.88;100.00
19748;BME280;10032;51.386;12.516;2023-02-21T11:43:17;100243.38;;;14.01;100.00
19748;BME280;10032;51.386;12.516;2023-02-21T11:46:16;100244.22;;;14.11;100.00
19748;BME280;10032;51.386;12.516;2023-02-21T11:53:58;100222.41;;;14.16;100.00
19748;BME280;10032;51.386;12.516;2023-02-21T11:59:22;100221.38;;;14.27;100.00
19748;BME280;10032;51.386;12.516;2023-02-21T12:07:06;100231.75;;;14.65;100.00
19748;BME280;10032;51.386;12.516;2023-02-21T12:18:06;100212.59;;;14.95;100.00
19748;BME280;10032;51.386;12.516;2023-02-21T12:21:28;100211.53;;;14.96;100.00
19748;BME280;10032;51.386;12.516;2023-02-21T12:23:40;100204.31;;;15.30;100.00
19748;BME280;10032;51.386;12.516;2023-02-21T12:26:33;100199.59;;;15.51;100.00
19748;BME280;10032;51.386;12.516;2023-02-21T12:37:55;100192.88;;;15.23;100.00
19748;BME280;10032;51.386;12.516;2023-02-21T12:46:11;100192.97;;;14.93;100.00
19748;BME280;10032;51.386;12.516;2023-02-21T12:51:18;100183.72;;;14.79;100.00
19748;BME280;10032;51.386;12.516;2023-02-21T12:53:50;100179.91;;;14.75;100.00
19748;BME280;10032;51.386;12.516;2023-02-21T12:56:25;100195.72;;;14.68;100.00
19748;BME280;10032;51.386;12.516;2023-02-21T12:59:02;100188.13;;;14.60;100.00
19748;BME280;10032;51.386;12.516;2023-02-21T13:01:44;100194.66;;;14.59;100.00
19748;BME280;10032;51.386;12.516;2023-02-21T13:04:41;100185.41;;;14.60;100.00
19748;BME280;10032;51.386;12.516;2023-02-21T13:07:22;100185.41;;;14.55;100.00
19748;BME280;10032;51.386;12.516;2023-02-21T13:10:21;100184.28;;;14.61;100.00
19748;BME280;10032;51.386;12.516;2023-02-21T13:15:22;100190.28;;;14.58;100.00
19748;BME280;10032;51.386;12.516;2023-02-21T13:20:22;100188.94;;;14.51;100.00
19748;BME280;10032;51.386;12.516;2023-02-21T13:28:56;100179.13;;;14.35;100.00
19748;BME280;10032;51.386;12.516;2023-02-21T13:31:33;100176.13;;;14.31;100.00
19748;BME280;10032;51.386;12.516;2023-02-21T13:34:06;100178.59;;;14.28;100.00
19748;BME280;10032;51.386;12.516;2023-02-21T13:41:48;100164.69;;;14.44;100.00
19748;BME280;10032;51.386;12.516;2023-02-21T13:44:34;100167.94;;;14.41;100.00
19748;BME280;10032;51.386;12.516;2023-02-21T13:49:40;100165.50;;;14.45;100.00
19748;BME280;10032;51.386;12.516;2023-02-21T13:57:38;100167.41;;;14.39;100.00
19748;BME280;10032;51.386;12.516;2023-02-21T14:08:28;100163.31;;;14.42;100.00
19748;BME280;10032;51.386;12.516;2023-02-21T14:11:01;100162.50;;;14.41;100.00
19748;BME280;10032;51.386;12.516;2023-02-21T14:21:05;100155.94;;;14.62;100.00
19748;BME280;10032;51.386;12.516;2023-02-21T14:23:40;100155.91;;;14.72;100.00
19748;BME280;10032;51.386;12.516;2023-02-21T14:26:38;100167.34;;;14.69;100.00
19748;BME280;10032;51.386;12.516;2023-02-21T14:31:54;100170.09;;;14.69;100.00
19748;BME280;10032;51.386;12.516;2023-02-21T14:39:53;100165.19;;;14.71;100.00
19748;BME280;10032;51.386;12.516;2023-02-21T14:42:41;100172.03;;;14.64;100.00
19748;BME280;10032;51.386;12.516;2023-02-21T14:50:36;100166.84;;;14.47;100.00
19748;BME280;10032;51.386;12.516;2023-02-21T15:01:01;100164.13;;;14.32;100.00
19748;BME280;10032;51.386;12.516;2023-02-21T15:03:59;100180.19;;;14.19;100.00
19748;BME280;10032;51.386;12.516;2023-02-21T15:06:27;100179.13;;;14.15;100.00
19748;BME280;10032;51.386;12.516;2023-02-21T15:08:53;100181.53;;;14.06;100.00
19748;BME280;10032;51.386;12.516;2023-02-21T15:11:29;100178.84;;;14.01;100.00
19748;BME280;10032;51.386;12.516;2023-02-21T15:14:31;100181.53;;;13.91;100.00
19748;BME280;10032;51.386;12.516;2023-02-21T15:17:01;100183.97;;;13.93;100.00
19748;BME280;10032;51.386;12.516;2023-02-21T15:19:34;100180.44;;;13.92;100.00
19748;BME280;10032;51.386;12.516;2023-02-21T15:22:24;100176.09;;;13.91;100.00
19748;BME280;10032;51.386;12.516;2023-02-21T15:30:16;100188.06;;;13.80;100.00
19748;BME280;10032;51.386;12.516;2023-02-21T15:32:43;100185.59;;;13.79;100.00
19748;BME280;10032;51.386;12.516;2023-02-21T15:35:21;100184.50;;;13.75;100.00
19748;BME280;10032;51.386;12.516;2023-02-21T15:37:47;100189.66;;;13.71;100.00